Santa Maria de Cayon, Spain
Current Conditions -  °F | °C
As of 2:30 PM on Friday 24 Oct 2014 (Local Time) from LEXJ Reporting Station
Clear Clear  
Wind Chill: 77°   Ceiling: Unl
Heat Index: 79°   Visibility: 6mi
Dew Point: 55°   Wind: 8mph
Humidity: 47%   Direction: 230°SW
Pressure: 30.09"   Gusts: NA
Location:  43.31°N, 3.84°W
Report Text: LEXJ 241230Z 23007KT 210V350 CAVOK 25/13 Q1019
Loading
Personal Weather Stations






























Interactive Weather Map
Tropical Storm Tracking
New forecast layout! Learn more

10-Day Weather Forecast

Advertisements
Track Severe Weather on mobile